createdAt,value
2018-03-17T00:02:20.137Z,11.63
2018-03-17T00:04:47.678Z,14.50
2018-03-17T00:07:15.197Z,10.37
2018-03-17T00:09:42.737Z,16.73
2018-03-17T00:12:11.025Z,15.47
2018-03-17T00:14:38.561Z,17.83
2018-03-17T00:17:06.852Z,11.57
2018-03-17T00:19:34.397Z,13.93
2018-03-17T00:22:02.680Z,13.03
2018-03-17T00:24:30.997Z,13.23
2018-03-17T00:26:58.513Z,14.77
2018-03-17T00:29:27.574Z,16.37
2018-03-17T00:31:55.093Z,11.77
2018-03-17T00:34:22.628Z,11.53
2018-03-17T00:36:50.921Z,12.57
2018-03-17T00:39:18.477Z,11.77
2018-03-17T00:41:46.012Z,12.10
2018-03-17T00:44:14.312Z,14.63
2018-03-17T00:46:41.841Z,10.97
2018-03-17T00:49:10.140Z,19.37
2018-03-17T00:51:37.673Z,10.90
2018-03-17T00:54:05.985Z,10.60
2018-03-17T00:56:33.514Z,13.27
2018-03-17T00:59:01.820Z,14.50
2018-03-17T01:01:29.344Z,14.27
2018-03-17T01:03:57.648Z,8.80
2018-03-17T01:06:25.173Z,9.70
2018-03-17T01:08:52.705Z,7.47
2018-03-17T01:11:20.229Z,12.43
2018-03-17T01:13:47.764Z,9.50
2018-03-17T01:16:15.276Z,17.13
2018-03-17T01:18:42.813Z,15.70
2018-03-17T01:21:10.374Z,13.27
2018-03-17T01:23:37.896Z,12.50
2018-03-17T01:26:06.205Z,15.17
2018-03-17T01:28:33.772Z,8.73
2018-03-17T01:31:01.322Z,10.03
2018-03-17T01:33:28.840Z,9.73
2018-03-17T01:35:57.142Z,16.77
2018-03-17T01:38:24.656Z,16.17
2018-03-17T01:40:52.198Z,13.13
2018-03-17T01:43:19.721Z,10.37
2018-03-17T01:45:47.264Z,10.20
2018-03-17T01:48:14.780Z,16.73
2018-03-17T01:50:42.323Z,11.23
2018-03-17T01:53:09.840Z,15.07
2018-03-17T01:55:37.392Z,9.90
2018-03-17T01:58:05.695Z,11.63
2018-03-17T02:00:33.241Z,8.20
2018-03-17T02:03:00.769Z,12.70
2018-03-17T02:05:28.304Z,7.77
2018-03-17T02:07:55.831Z,11.57
2018-03-17T02:10:23.368Z,8.17
2018-03-17T02:12:50.892Z,11.37
2018-03-17T02:15:18.425Z,9.57
2018-03-17T02:17:45.932Z,9.13
2018-03-17T02:20:14.240Z,9.70
2018-03-17T02:22:41.756Z,9.77
2018-03-17T02:25:10.060Z,12.67
2018-03-17T02:27:37.593Z,13.87
2018-03-17T02:30:05.894Z,15.10
2018-03-17T02:32:33.476Z,10.70
2018-03-17T02:35:01.030Z,13.23
2018-03-17T02:37:28.567Z,14.83
2018-03-17T02:39:56.120Z,11.77
2018-03-17T02:42:23.645Z,13.07
2018-03-17T02:44:51.178Z,8.33
2018-03-17T02:47:18.701Z,12.13
2018-03-17T02:49:46.249Z,17.20
2018-03-17T02:52:13.787Z,12.83
2018-03-17T02:54:41.325Z,11.97
2018-03-17T02:57:08.849Z,17.73
2018-03-17T02:59:36.388Z,15.87
2018-03-17T03:02:03.912Z,16.53
2018-03-17T03:04:31.449Z,12.03
2018-03-17T03:06:58.977Z,14.10
2018-03-17T03:09:26.574Z,18.67
2018-03-17T03:11:54.075Z,10.07
2018-03-17T03:14:21.611Z,11.90
2018-03-17T03:16:49.148Z,10.77
2018-03-17T03:19:16.672Z,13.50
2018-03-17T03:21:44.226Z,8.73
2018-03-17T03:24:11.749Z,10.50
2018-03-17T03:26:40.061Z,10.33
2018-03-17T03:29:07.580Z,12.00
2018-03-17T03:31:35.893Z,14.67
2018-03-17T03:34:03.421Z,10.10
2018-03-17T03:36:31.733Z,11.43
2018-03-17T03:38:59.260Z,12.33
2018-03-17T03:41:27.561Z,13.53
2018-03-17T03:43:55.080Z,9.70
2018-03-17T03:46:22.612Z,13.37
2018-03-17T03:48:50.133Z,10.43
2018-03-17T03:51:17.676Z,15.67
2018-03-17T03:53:45.189Z,13.50
2018-03-17T03:56:12.726Z,15.73
2018-03-17T03:58:40.249Z,16.17
2018-03-17T04:01:07.804Z,15.23
2018-03-17T04:03:35.328Z,18.70
2018-03-17T04:06:02.870Z,17.07
2018-03-17T04:08:30.392Z,22.20
2018-03-17T04:10:58.704Z,20.07
2018-03-17T04:13:26.225Z,24.33
2018-03-17T04:15:53.764Z,25.50
2018-03-17T04:18:21.299Z,22.30
2018-03-17T04:20:48.844Z,25.60
2018-03-17T04:23:16.391Z,27.27
2018-03-17T04:25:43.929Z,29.43
2018-03-17T04:28:12.224Z,28.57
2018-03-17T04:30:39.784Z,25.77
2018-03-17T04:33:08.076Z,27.47
2018-03-17T04:35:35.621Z,26.00
2018-03-17T04:38:03.141Z,29.77
2018-03-17T04:40:30.684Z,23.90
2018-03-17T04:42:58.978Z,25.83
2018-03-17T04:45:26.522Z,23.27
2018-03-17T04:47:54.045Z,21.37
2018-03-17T04:50:21.588Z,16.40
2018-03-17T04:52:49.116Z,16.00
2018-03-17T04:55:16.657Z,15.77
2018-03-17T04:57:44.180Z,17.07
2018-03-17T05:00:11.720Z,17.23
2018-03-17T05:02:39.240Z,22.03
2018-03-17T05:05:06.785Z,15.83
2018-03-17T05:07:34.336Z,19.17
2018-03-17T05:10:02.620Z,20.07
2018-03-17T05:12:30.164Z,23.53
2018-03-17T05:14:58.452Z,22.83
2018-03-17T05:17:26.765Z,24.27
2018-03-17T05:19:54.281Z,27.03
2018-03-17T05:22:22.581Z,26.83
2018-03-17T05:24:50.103Z,31.03
2018-03-17T05:27:17.643Z,31.23
2018-03-17T05:29:45.216Z,30.73
2018-03-17T05:32:12.753Z,31.67
2018-03-17T05:34:40.268Z,35.03
2018-03-17T05:37:07.804Z,34.10
2018-03-17T05:39:36.091Z,36.50
2018-03-17T05:42:04.397Z,36.33
2018-03-17T05:44:32.690Z,35.40
2018-03-17T05:47:00.245Z,37.03
2018-03-17T05:49:27.768Z,37.67
2018-03-17T05:51:55.306Z,45.37
2018-03-17T05:54:23.588Z,38.03
2018-03-17T05:56:51.901Z,39.50
2018-03-17T05:59:19.436Z,40.13
2018-03-17T06:01:46.976Z,39.33
2018-03-17T06:04:15.285Z,43.00
2018-03-17T06:06:42.808Z,39.50
2018-03-17T06:09:11.098Z,41.70
2018-03-17T06:11:39.408Z,39.23
2018-03-17T06:14:06.945Z,37.03
2018-03-17T06:16:34.488Z,43.50
2018-03-17T06:19:02.772Z,39.80
2018-03-17T06:21:30.319Z,42.17
2018-03-17T06:23:58.607Z,39.50
2018-03-17T06:26:26.155Z,39.97
2018-03-17T06:28:54.446Z,42.27
2018-03-17T06:31:22.031Z,38.50
2018-03-17T06:33:49.554Z,37.63
2018-03-17T06:36:17.092Z,43.47
2018-03-17T06:38:45.378Z,40.83
2018-03-17T06:41:13.680Z,38.30
2018-03-17T06:43:41.208Z,36.20
2018-03-17T06:46:09.509Z,36.70
2018-03-17T06:48:37.033Z,37.87
2018-03-17T06:51:05.345Z,35.87
2018-03-17T06:53:32.865Z,36.37
2018-03-17T06:56:00.408Z,33.83
2018-03-17T06:58:27.940Z,30.60
2018-03-17T07:00:55.476Z,29.83
2018-03-17T07:03:22.997Z,28.03
2018-03-17T07:05:50.532Z,31.43
2018-03-17T07:08:18.049Z,31.70
2018-03-17T07:10:45.568Z,27.40
2018-03-17T07:13:13.110Z,28.00
2018-03-17T07:15:40.638Z,31.90
2018-03-17T07:18:08.177Z,27.67
2018-03-17T07:20:35.702Z,27.07
2018-03-17T07:23:03.249Z,30.67
2018-03-17T07:25:30.766Z,24.93
2018-03-17T07:27:58.304Z,26.73
2018-03-17T07:30:25.826Z,27.97
2018-03-17T07:32:53.372Z,27.10
2018-03-17T07:35:20.894Z,23.57
2018-03-17T07:37:48.433Z,26.10
2018-03-17T07:40:16.716Z,28.07
2018-03-17T07:42:44.261Z,26.30
2018-03-17T07:45:12.557Z,26.43
2018-03-17T07:47:40.097Z,25.90
2018-03-17T07:50:08.391Z,23.43
2018-03-17T07:52:35.934Z,22.60
2018-03-17T07:55:04.219Z,24.43
2018-03-17T07:57:31.772Z,22.03
2018-03-17T07:59:59.293Z,29.43
2018-03-17T08:02:26.849Z,21.27
2018-03-17T08:04:54.370Z,20.80
2018-03-17T08:07:21.912Z,21.60
2018-03-17T08:09:49.433Z,25.67
2018-03-17T08:12:16.979Z,21.20
2018-03-17T08:14:44.501Z,21.50
2018-03-17T08:17:12.048Z,21.10
2018-03-17T08:19:39.568Z,21.00
2018-03-17T08:22:07.117Z,23.43
2018-03-17T08:24:34.642Z,18.97
2018-03-17T08:27:02.196Z,20.77
2018-03-17T08:29:29.724Z,19.57
2018-03-17T08:31:58.034Z,22.23
2018-03-17T08:34:25.560Z,19.50
2018-03-17T08:36:53.109Z,18.27
2018-03-17T08:39:21.440Z,20.10
2018-03-17T08:41:48.955Z,21.93
2018-03-17T08:44:16.486Z,20.57
2018-03-17T08:46:44.039Z,17.93
2018-03-17T08:49:11.560Z,21.73
2018-03-17T08:51:39.873Z,18.73
2018-03-17T08:54:07.773Z,21.07
2018-03-17T08:56:35.317Z,19.97
2018-03-17T08:59:03.613Z,20.40
2018-03-17T09:01:31.152Z,20.87
2018-03-17T09:03:59.450Z,18.83
2018-03-17T09:06:27.017Z,19.30
2018-03-17T09:08:54.632Z,18.97
2018-03-17T09:11:22.920Z,22.67
2018-03-17T09:13:51.341Z,18.00
2018-03-17T09:16:19.124Z,20.43
2018-03-17T09:18:46.675Z,19.03
2018-03-17T09:21:14.204Z,17.90
2018-03-17T09:23:41.749Z,18.47
2018-03-17T09:26:10.037Z,18.07
2018-03-17T09:28:37.623Z,18.20
2018-03-17T09:31:05.171Z,18.43
2018-03-17T09:33:32.833Z,18.70
2018-03-17T09:36:00.499Z,21.13
2018-03-17T09:38:28.108Z,17.83
2018-03-17T09:40:55.634Z,16.33
2018-03-17T09:43:23.171Z,21.27
2018-03-17T09:45:50.688Z,18.93
2018-03-17T09:48:19.049Z,17.57
2018-03-17T09:50:46.566Z,20.13
2018-03-17T09:53:14.114Z,20.43
2018-03-17T09:55:41.634Z,19.23
2018-03-17T09:58:10.091Z,16.50
2018-03-17T10:00:37.632Z,14.00
2018-03-17T10:03:06.106Z,18.20
2018-03-17T10:05:33.642Z,19.57
2018-03-17T10:08:01.176Z,18.63
2018-03-17T10:10:29.463Z,16.27
2018-03-17T10:12:57.037Z,13.90
2018-03-17T10:15:24.565Z,16.57
2018-03-17T10:17:52.880Z,15.67
2018-03-17T10:20:20.403Z,16.23
2018-03-17T10:22:48.719Z,16.43
2018-03-17T10:25:16.257Z,17.93
2018-03-17T10:27:43.813Z,19.93
2018-03-17T10:30:11.336Z,19.80
2018-03-17T10:32:38.877Z,18.07
2018-03-17T10:35:06.405Z,18.80
2018-03-17T10:37:33.943Z,16.30
2018-03-17T10:40:01.456Z,28.60
2018-03-17T10:42:29.000Z,24.03
2018-03-17T10:44:56.521Z,19.87
2018-03-17T10:47:24.063Z,18.77
2018-03-17T10:49:52.352Z,20.60
2018-03-17T10:52:19.897Z,17.80
2018-03-17T10:54:48.193Z,17.60
2018-03-17T10:57:15.740Z,18.67
2018-03-17T10:59:43.257Z,16.63
2018-03-17T11:02:10.785Z,15.80
2018-03-17T11:04:38.327Z,17.47
2018-03-17T11:07:05.858Z,17.80
2018-03-17T11:09:34.178Z,20.13
2018-03-17T11:12:01.700Z,17.83
2018-03-17T11:14:30.056Z,16.07
2018-03-17T11:16:57.561Z,16.03
2018-03-17T11:19:25.113Z,19.00
2018-03-17T11:21:52.632Z,19.00
2018-03-17T11:24:20.178Z,19.20
2018-03-17T11:26:47.698Z,17.50
2018-03-17T11:29:15.253Z,26.13
2018-03-17T11:31:42.786Z,27.07
2018-03-17T11:34:11.099Z,19.87
2018-03-17T11:36:38.616Z,13.47
2018-03-17T11:39:06.935Z,15.83
2018-03-17T11:41:34.461Z,16.10
2018-03-17T11:44:02.008Z,17.83
2018-03-17T11:46:30.298Z,15.97
2018-03-17T11:48:57.841Z,16.70
2018-03-17T11:51:26.136Z,18.80
2018-03-17T11:53:53.678Z,76.73
2018-03-17T11:56:21.975Z,22.13
2018-03-17T11:58:49.509Z,21.80
2018-03-17T12:01:17.800Z,14.43
2018-03-17T12:03:45.341Z,24.67
2018-03-17T12:06:13.628Z,17.07
2018-03-17T12:08:41.181Z,32.27
2018-03-17T12:11:09.472Z,19.03
2018-03-17T12:13:37.012Z,16.37
2018-03-17T12:16:05.305Z,17.97
2018-03-17T12:18:32.849Z,14.63
2018-03-17T12:21:01.137Z,18.33
2018-03-17T12:23:28.685Z,17.10
2018-03-17T12:25:56.995Z,16.47
2018-03-17T12:28:24.570Z,14.37
2018-03-17T12:30:52.091Z,14.93
2018-03-17T12:33:19.796Z,13.63
2018-03-17T12:35:47.509Z,16.80
2018-03-17T12:38:15.944Z,13.50
2018-03-17T12:40:43.514Z,15.97
2018-03-17T12:43:11.125Z,18.13
2018-03-17T12:45:40.184Z,14.10
2018-03-17T12:48:08.497Z,14.80
2018-03-17T12:50:36.228Z,17.30
2018-03-17T12:53:04.618Z,16.30
2018-03-17T12:55:32.178Z,15.43
2018-03-17T12:58:00.733Z,15.60
2018-03-17T13:00:29.037Z,15.57
2018-03-17T13:02:56.614Z,16.07
2018-03-17T13:05:25.016Z,14.20
2018-03-17T13:07:52.629Z,17.23
2018-03-17T13:10:20.193Z,15.17
2018-03-17T13:12:47.937Z,13.73
2018-03-17T13:15:16.360Z,15.10
2018-03-17T13:17:43.917Z,15.20
2018-03-17T13:20:11.504Z,17.83
2018-03-17T13:22:50.841Z,14.47
2018-03-17T13:25:18.381Z,14.57
2018-03-17T13:27:57.646Z,16.50
2018-03-17T13:30:25.190Z,14.97
2018-03-17T13:32:59.393Z,15.07
2018-03-17T13:35:38.834Z,14.03
2018-03-17T13:38:06.353Z,13.97
2018-03-17T13:40:43.229Z,17.27
2018-03-17T13:43:10.753Z,13.93
2018-03-17T13:45:38.470Z,18.00
2018-03-17T13:48:06.013Z,17.00
2018-03-17T13:50:33.551Z,16.53
2018-03-17T13:53:01.099Z,14.70
2018-03-17T13:55:29.432Z,16.87
2018-03-17T13:57:57.377Z,17.43
2018-03-17T14:00:25.150Z,16.27
2018-03-17T14:02:52.864Z,18.47
2018-03-17T14:05:20.413Z,14.63
2018-03-17T14:07:47.924Z,14.33
2018-03-17T14:10:15.757Z,20.30
2018-03-17T14:12:44.424Z,15.67
2018-03-17T14:15:11.967Z,16.83
2018-03-17T14:17:39.498Z,16.73
2018-03-17T14:20:07.422Z,20.13
2018-03-17T14:22:35.720Z,20.27
2018-03-17T14:25:03.261Z,17.53
2018-03-17T14:27:31.562Z,18.90
2018-03-17T14:29:59.162Z,17.60
2018-03-17T14:32:26.768Z,20.40
2018-03-17T14:34:54.314Z,17.67
2018-03-17T14:37:22.642Z,21.53
2018-03-17T14:39:50.199Z,15.40
2018-03-17T14:42:17.911Z,21.13
2018-03-17T14:44:46.223Z,18.03
2018-03-17T14:47:13.753Z,18.00
2018-03-17T14:49:42.371Z,20.90
2018-03-17T14:52:09.920Z,24.63
2018-03-17T14:54:37.869Z,23.00
2018-03-17T14:57:05.810Z,21.50
2018-03-17T14:59:34.902Z,15.50
2018-03-17T15:02:02.457Z,20.13
2018-03-17T15:04:30.126Z,16.77
2018-03-17T15:06:58.509Z,14.70
2018-03-17T15:09:26.167Z,15.40
2018-03-17T15:11:55.155Z,18.67
2018-03-17T15:14:22.809Z,22.37
2018-03-17T15:16:50.748Z,17.90
2018-03-17T15:19:18.281Z,23.37
2018-03-17T15:21:45.801Z,21.37
2018-03-17T15:24:13.657Z,24.53
2018-03-17T15:26:41.201Z,20.37
2018-03-17T15:29:08.721Z,18.23
2018-03-17T15:31:36.417Z,22.77
2018-03-17T15:34:04.277Z,19.67
2018-03-17T15:36:31.820Z,22.13
2018-03-17T15:38:59.346Z,20.37
2018-03-17T15:41:26.877Z,21.97
2018-03-17T15:43:54.396Z,23.50
2018-03-17T15:46:21.966Z,23.20
2018-03-17T15:48:49.484Z,19.77
2018-03-17T15:51:17.224Z,19.70
2018-03-17T15:53:45.702Z,20.93
2018-03-17T15:56:13.362Z,22.53
2018-03-17T15:58:40.884Z,24.43
2018-03-17T16:01:08.442Z,19.43
2018-03-17T16:03:35.961Z,21.03
2018-03-17T16:06:04.264Z,22.40
2018-03-17T16:08:31.784Z,20.33
2018-03-17T16:11:00.084Z,22.73
2018-03-17T16:13:27.604Z,23.47
2018-03-17T16:15:55.149Z,21.63
2018-03-17T16:18:22.661Z,20.73
2018-03-17T16:20:50.200Z,18.13
2018-03-17T16:23:18.485Z,17.80
2018-03-17T16:25:46.029Z,21.20
2018-03-17T16:28:14.324Z,22.17
2018-03-17T16:30:41.862Z,25.43
2018-03-17T16:33:10.159Z,17.47
2018-03-17T16:35:37.702Z,17.60
2018-03-17T16:38:05.985Z,21.77
2018-03-17T16:40:33.529Z,24.23
2018-03-17T16:43:01.809Z,22.43
2018-03-17T16:45:29.369Z,23.80
2018-03-17T16:47:57.664Z,19.37
2018-03-17T16:50:25.205Z,26.00
2018-03-17T16:52:53.511Z,17.67
2018-03-17T16:55:21.061Z,19.30
2018-03-17T16:57:48.584Z,17.77
2018-03-17T17:00:16.897Z,26.40
2018-03-17T17:02:44.693Z,16.50
2018-03-17T17:05:12.247Z,19.97
2018-03-17T17:07:39.851Z,22.37
2018-03-17T17:10:07.489Z,25.20
2018-03-17T17:12:35.357Z,27.87
2018-03-17T17:15:03.140Z,22.13
2018-03-17T17:17:31.504Z,16.47
2018-03-17T17:19:59.185Z,21.27
2018-03-17T17:22:27.940Z,18.80
2018-03-17T17:24:55.496Z,20.50
2018-03-17T17:27:23.273Z,18.83
2018-03-17T17:29:51.710Z,14.30
2018-03-17T17:32:19.377Z,27.87
2018-03-17T17:34:47.189Z,23.43
2018-03-17T17:37:15.992Z,21.00
2018-03-17T17:39:44.280Z,26.93
2018-03-17T17:42:12.048Z,21.13
2018-03-17T17:44:39.566Z,27.17
2018-03-17T17:47:07.113Z,12.80
2018-03-17T17:49:34.643Z,22.13
2018-03-17T17:52:02.308Z,19.20
2018-03-17T17:54:29.838Z,21.27
2018-03-17T17:56:57.395Z,24.27
2018-03-17T17:59:24.972Z,28.67
2018-03-17T18:01:52.516Z,39.30
2018-03-17T18:04:20.116Z,28.80
2018-03-17T18:06:47.657Z,23.57
2018-03-17T18:09:15.200Z,17.63
2018-03-17T18:11:42.758Z,32.23
2018-03-17T18:14:10.344Z,22.73
2018-03-17T18:16:37.954Z,24.70
2018-03-17T18:19:05.620Z,24.97
2018-03-17T18:21:33.145Z,20.57
2018-03-17T18:24:01.531Z,25.97
2018-03-17T18:26:29.840Z,25.40
2018-03-17T18:28:57.404Z,19.33
2018-03-17T18:31:24.946Z,24.50
2018-03-17T18:33:53.248Z,28.03
2018-03-17T18:36:21.040Z,30.40
2018-03-17T18:38:48.583Z,19.47
2018-03-17T18:41:16.192Z,24.43
2018-03-17T18:43:44.634Z,26.83
2018-03-17T18:46:12.173Z,22.40
2018-03-17T18:48:39.721Z,25.77
2018-03-17T18:51:07.248Z,29.20
2018-03-17T18:53:35.595Z,23.63
2018-03-17T18:56:03.131Z,20.60
2018-03-17T18:58:30.693Z,21.40
2018-03-17T19:00:58.224Z,19.93
2018-03-17T19:03:25.765Z,22.80
2018-03-17T19:05:53.293Z,21.67
2018-03-17T19:08:20.842Z,22.80
2018-03-17T19:10:48.360Z,30.13
2018-03-17T19:13:15.917Z,85.67
2018-03-17T19:15:43.500Z,23.23
2018-03-17T19:18:11.021Z,16.23
2018-03-17T19:20:38.550Z,33.87
2018-03-17T19:23:06.849Z,25.03
2018-03-17T19:25:34.395Z,76.87
2018-03-17T19:28:02.694Z,101.83
2018-03-17T19:30:30.241Z,172.30
2018-03-17T19:32:58.524Z,115.10
2018-03-17T19:35:26.070Z,53.60
2018-03-17T19:37:53.589Z,23.57
2018-03-17T19:40:21.169Z,23.33
2018-03-17T19:42:49.544Z,21.83
2018-03-17T19:45:17.084Z,28.40
2018-03-17T19:47:44.608Z,25.90
2018-03-17T19:50:12.163Z,17.77
2018-03-17T19:52:39.687Z,32.70
2018-03-17T19:55:08.005Z,23.20
2018-03-17T19:57:35.533Z,36.73
2018-03-17T20:00:03.930Z,32.43
2018-03-17T20:02:31.454Z,55.33
2018-03-17T20:04:58.998Z,28.97
2018-03-17T20:07:26.525Z,44.77
2018-03-17T20:09:54.086Z,72.43
2018-03-17T20:12:21.628Z,45.80
2018-03-17T20:14:49.185Z,37.87
2018-03-17T20:17:16.720Z,43.57
2018-03-17T20:19:45.028Z,45.67
2018-03-17T20:22:12.557Z,69.80
2018-03-17T20:24:40.864Z,42.37
2018-03-17T20:27:08.397Z,79.53
2018-03-17T20:29:35.940Z,42.10
2018-03-17T20:32:04.237Z,37.03
2018-03-17T20:34:31.789Z,38.27
2018-03-17T20:36:59.332Z,30.20
2018-03-17T20:39:28.757Z,29.67
2018-03-17T20:41:56.291Z,28.73
2018-03-17T20:44:24.588Z,33.13
2018-03-17T20:46:52.136Z,22.63
2018-03-17T20:49:20.436Z,30.77
2018-03-17T20:51:48.804Z,25.03
2018-03-17T20:54:16.366Z,28.17
2018-03-17T20:56:43.888Z,30.50
2018-03-17T20:59:11.430Z,35.07
2018-03-17T21:01:38.951Z,30.50
2018-03-17T21:04:06.513Z,33.67
2018-03-17T21:06:34.034Z,34.97
2018-03-17T21:09:02.343Z,36.30
2018-03-17T21:11:29.864Z,17.20
2018-03-17T21:13:58.173Z,24.13
2018-03-17T21:16:25.698Z,23.97
2018-03-17T21:18:54.018Z,27.13
2018-03-17T21:21:21.554Z,26.27
2018-03-17T21:23:49.076Z,23.50
2018-03-17T21:26:16.618Z,24.10
2018-03-17T21:28:44.137Z,19.77
2018-03-17T21:31:11.681Z,29.93
2018-03-17T21:33:39.214Z,35.83
2018-03-17T21:36:06.769Z,18.63
2018-03-17T21:38:34.288Z,33.07
2018-03-17T21:41:01.849Z,23.80
2018-03-17T21:43:29.373Z,31.57
2018-03-17T21:45:56.937Z,29.77
2018-03-17T21:48:24.461Z,21.60
2018-03-17T21:50:52.000Z,23.87
2018-03-17T21:53:19.520Z,26.67
2018-03-17T21:55:47.068Z,29.10
2018-03-17T21:58:14.586Z,26.60
2018-03-17T22:00:42.175Z,26.83
2018-03-17T22:03:09.666Z,23.00
2018-03-17T22:05:37.210Z,31.07
2018-03-17T22:08:04.740Z,31.77
2018-03-17T22:10:33.052Z,31.80
2018-03-17T22:13:00.580Z,16.33
2018-03-17T22:15:28.123Z,22.63
2018-03-17T22:17:56.412Z,26.63
2018-03-17T22:20:24.728Z,32.20
2018-03-17T22:22:52.255Z,29.53
2018-03-17T22:25:19.803Z,26.13
2018-03-17T22:27:48.100Z,19.40
2018-03-17T22:30:15.645Z,29.33
2018-03-17T22:32:43.163Z,31.60
2018-03-17T22:35:10.701Z,35.53
2018-03-17T22:37:38.277Z,22.77
2018-03-17T22:40:05.809Z,29.03
2018-03-17T22:42:33.337Z,30.30
2018-03-17T22:45:01.644Z,26.57
2018-03-17T22:47:29.164Z,24.43
2018-03-17T22:49:57.473Z,27.37
2018-03-17T22:52:25.004Z,28.67
2018-03-17T22:54:52.544Z,29.73
2018-03-17T22:57:20.848Z,27.33
2018-03-17T22:59:48.388Z,29.73
2018-03-17T23:02:15.925Z,26.43
2018-03-17T23:04:44.232Z,28.53
2018-03-17T23:07:12.512Z,24.17
2018-03-17T23:09:40.100Z,29.17
2018-03-17T23:12:07.599Z,25.03
2018-03-17T23:14:35.141Z,31.27
2018-03-17T23:17:02.660Z,27.47
2018-03-17T23:19:30.220Z,21.60
2018-03-17T23:21:57.765Z,25.93
2018-03-17T23:24:25.299Z,31.57
2018-03-17T23:26:53.612Z,31.40
2018-03-17T23:29:21.133Z,15.20
2018-03-17T23:31:49.436Z,24.70
2018-03-17T23:34:16.964Z,26.07
2018-03-17T23:36:44.505Z,26.27
2018-03-17T23:39:12.032Z,23.63
2018-03-17T23:41:39.580Z,12.17
2018-03-17T23:44:07.977Z,28.23
2018-03-17T23:46:35.525Z,25.53
2018-03-17T23:49:03.820Z,24.33
2018-03-17T23:51:31.360Z,25.80
2018-03-17T23:53:58.901Z,30.10
2018-03-17T23:56:26.456Z,29.17
2018-03-17T23:58:54.679Z,29.07
